Time;durP1;ratioP1;P1;durP2;ratioP2;P2;SDS_P1;SDS_P2;PMS_P1;PMS_P2;Temp;Humidity;BMP_temperature;BMP_pressure;BME280_temperature;BME280_humidity;BME280_pressure;Samples;Min_cycle;Max_cycle;Signal;HPM_P1;HPM_P2
2021/12/28 00:00:07;;;;;;;2.08;0.85;;;;;;;26.32;33.27;95167.59;4984038;28;20057;-35
2021/12/28 00:02:32;;;;;;;3.03;1.23;;;;;;;26.31;33.31;95164.13;4981415;28;20099;-31
2021/12/28 00:04:57;;;;;;;1.98;1.10;;;;;;;26.31;33.28;95158.88;4969581;28;20037;-34
2021/12/28 00:07:23;;;;;;;1.75;0.90;;;;;;;26.30;33.29;95162.47;4982741;28;20041;-29
2021/12/28 00:09:48;;;;;;;1.45;1.00;;;;;;;26.30;33.40;95167.72;4983322;28;20048;-29
2021/12/28 00:12:14;;;;;;;1.52;0.98;;;;;;;26.31;33.30;95168.56;4951006;28;20084;-31
2021/12/28 00:14:48;;;;;;;1.33;0.90;;;;;;;26.31;33.33;95171.19;4983532;28;20030;-33
2021/12/28 00:19:58;;;;;;;1.20;0.73;;;;;;;26.30;33.32;95161.63;4980956;28;20053;-31
2021/12/28 00:22:24;;;;;;;0.98;0.70;;;;;;;26.30;33.30;95172.13;4983866;28;20022;-32
2021/12/28 00:24:49;;;;;;;3.55;0.90;;;;;;;26.29;33.32;95162.59;4985740;28;20041;-29
2021/12/28 00:27:14;;;;;;;1.98;1.02;;;;;;;26.29;33.35;95171.31;4990905;28;20021;-31
2021/12/28 00:29:41;;;;;;;1.98;0.90;;;;;;;26.28;33.24;95172.25;4989539;28;20033;-37
2021/12/28 00:32:07;;;;;;;1.15;0.90;;;;;;;26.28;33.23;95169.63;4984396;28;20030;-35
2021/12/28 00:34:34;;;;;;;1.60;1.00;;;;;;;26.28;33.48;95159.13;4982775;28;20042;-35
2021/12/28 00:36:59;;;;;;;3.95;1.05;;;;;;;26.29;33.40;95162.59;4984113;28;20043;-31
2021/12/28 00:39:25;;;;;;;1.83;0.70;;;;;;;26.28;33.30;95153.06;4982561;28;20049;-36
2021/12/28 00:41:51;;;;;;;2.60;0.98;;;;;;;26.27;33.44;95154.84;4989288;28;20046;-34
2021/12/28 00:44:18;;;;;;;1.58;0.88;;;;;;;26.27;33.35;95151.38;4984081;28;20027;-35
2021/12/28 00:46:43;;;;;;;1.25;0.85;;;;;;;26.27;33.27;95157.47;4984518;28;20045;-35
2021/12/28 00:49:09;;;;;;;1.77;0.80;;;;;;;26.26;33.40;95152.31;4984655;28;20491;-31
2021/12/28 00:51:34;;;;;;;1.33;0.88;;;;;;;26.26;33.31;95154.94;4982145;28;20029;-30
2021/12/28 00:54:00;;;;;;;1.55;0.80;;;;;;;26.26;33.38;95152.31;4982997;28;20038;-31
2021/12/28 00:56:25;;;;;;;1.35;0.73;;;;;;;26.24;33.36;95152.44;4982368;28;20527;-30
2021/12/28 00:58:50;;;;;;;1.52;1.00;;;;;;;26.24;33.20;95160.31;4983177;28;20029;-31
2021/12/28 01:01:16;;;;;;;1.58;0.82;;;;;;;26.23;33.23;95150.75;4982736;28;20037;-32
2021/12/28 01:03:41;;;;;;;0.88;0.60;;;;;;;26.23;33.35;95140.25;4985985;28;20088;-31
2021/12/28 01:06:07;;;;;;;2.30;0.90;;;;;;;26.22;33.24;95141.22;4985589;28;20026;-33
2021/12/28 01:08:32;;;;;;;3.05;0.75;;;;;;;26.21;33.31;95136.94;4990136;28;20037;-29
2021/12/28 01:10:58;;;;;;;1.77;0.80;;;;;;;26.21;33.26;95139.56;4981968;28;20038;-35
2021/12/28 01:13:23;;;;;;;1.40;0.90;;;;;;;26.22;33.30;95138.59;4983594;28;20721;-30
2021/12/28 01:15:49;;;;;;;2.33;0.90;;;;;;;26.21;33.30;95131.69;4980516;28;20033;-32
2021/12/28 01:18:15;;;;;;;1.10;0.70;;;;;;;26.20;33.35;95125.59;4981242;28;20053;-31
2021/12/28 01:20:41;;;;;;;1.42;0.80;;;;;;;26.21;33.38;95136.94;4982204;28;20044;-32
2021/12/28 01:23:06;;;;;;;3.83;0.70;;;;;;;26.20;33.36;95119.50;4982345;28;20022;-32
2021/12/28 01:25:32;;;;;;;1.75;0.82;;;;;;;26.16;33.24;95107.59;4983193;28;20512;-34
2021/12/28 01:27:57;;;;;;;0.93;0.65;;;;;;;26.21;33.33;95105.44;4981492;28;20030;-30
2021/12/28 01:30:24;;;;;;;1.17;0.57;;;;;;;26.21;33.25;95097.53;4967171;28;20022;-30
2021/12/28 01:32:50;;;;;;;1.35;0.85;;;;;;;26.19;33.39;95091.56;4981082;28;20030;-30
2021/12/28 01:35:15;;;;;;;1.77;0.70;;;;;;;26.19;33.28;95086.31;4967775;28;20684;-31
2021/12/28 01:37:41;;;;;;;1.30;0.52;;;;;;;26.19;33.25;95094.19;4982811;28;20058;-29
2021/12/28 01:40:08;;;;;;;1.83;0.70;;;;;;;26.18;33.32;95089.91;4965743;28;20045;-34
2021/12/28 01:42:34;;;;;;;1.35;0.60;;;;;;;26.17;33.25;95091.72;4982168;28;20074;-33
2021/12/28 01:44:59;;;;;;;1.98;0.80;;;;;;;26.17;33.27;95083.00;4982416;28;20233;-34
2021/12/28 01:47:25;;;;;;;1.60;0.70;;;;;;;26.17;33.23;95080.38;4983890;28;20021;-33
2021/12/28 01:49:50;;;;;;;1.67;0.75;;;;;;;26.12;33.38;95069.44;4980798;28;20115;-32
2021/12/28 01:52:15;;;;;;;5.80;1.40;;;;;;;26.17;33.27;95075.13;4982475;28;20649;-34
2021/12/28 01:54:42;;;;;;;3.35;1.33;;;;;;;26.16;33.33;95073.47;4981659;28;20045;-28
2021/12/28 01:57:07;;;;;;;2.00;0.80;;;;;;;26.15;33.37;95071.78;4965812;28;20029;-33
2021/12/28 01:59:32;;;;;;;4.28;0.88;;;;;;;26.15;33.34;95063.91;4983346;28;20444;-32
2021/12/28 02:01:58;;;;;;;0.70;0.52;;;;;;;26.14;33.33;95062.25;4981444;28;20099;-30
2021/12/28 02:04:25;;;;;;;1.77;0.70;;;;;;;26.14;33.35;95057.00;4982287;28;20577;-30
2021/12/28 02:06:50;;;;;;;2.55;0.93;;;;;;;26.14;33.24;95051.75;4985252;28;20034;-28
2021/12/28 02:09:16;;;;;;;2.78;1.00;;;;;;;26.13;33.45;95050.09;4983563;28;20036;-33
2021/12/28 02:11:41;;;;;;;2.20;0.88;;;;;;;26.13;33.41;95056.19;4983206;28;20033;-30
2021/12/28 02:14:08;;;;;;;1.73;0.70;;;;;;;26.12;33.41;95048.44;4982243;28;20045;-34
2021/12/28 02:16:34;;;;;;;2.03;1.10;;;;;;;26.13;33.31;95044.84;4983340;28;20488;-33
2021/12/28 02:19:02;;;;;;;1.70;1.02;;;;;;;26.13;33.28;95050.09;4961003;28;20038;-31
2021/12/28 02:21:31;;;;;;;1.70;0.80;;;;;;;26.12;33.17;95032.66;4983049;28;20422;-31
2021/12/28 02:23:57;;;;;;;1.65;0.90;;;;;;;26.12;33.27;95035.28;4982017;28;20036;-30
2021/12/28 02:26:22;;;;;;;1.75;1.02;;;;;;;26.10;33.22;95032.78;4984461;28;20573;-29
2021/12/28 02:28:47;;;;;;;1.45;0.65;;;;;;;26.09;33.28;95026.69;4983042;28;20030;-32
2021/12/28 02:31:13;;;;;;;1.77;0.70;;;;;;;26.09;33.20;95031.94;4980578;28;20459;-30
2021/12/28 02:33:38;;;;;;;2.75;0.80;;;;;;;26.09;33.27;95018.81;4980024;28;20037;-32
2021/12/28 02:36:04;;;;;;;1.92;0.98;;;;;;;26.10;33.16;95020.47;4979824;28;20034;-33
2021/12/28 02:38:30;;;;;;;1.02;0.70;;;;;;;26.09;33.22;95008.31;4982060;28;20622;-31
2021/12/28 02:40:55;;;;;;;0.95;0.60;;;;;;;26.09;33.33;95012.75;4966326;28;20080;-30
2021/12/28 02:43:21;;;;;;;3.25;0.90;;;;;;;26.07;33.26;95005.00;4987478;28;20034;-30
2021/12/28 02:46:01;;;;;;;1.70;0.68;;;;;;;26.09;33.33;94997.00;4979862;28;20050;-29
2021/12/28 02:48:27;;;;;;;3.22;0.70;;;;;;;26.08;33.13;94993.53;4960022;28;20095;-31
2021/12/28 02:50:55;;;;;;;1.63;0.90;;;;;;;26.08;33.30;94990.06;4980974;28;20305;-32
2021/12/28 02:53:21;;;;;;;3.78;0.80;;;;;;;26.08;33.28;94984.81;4979355;28;20022;-32
2021/12/28 02:55:46;;;;;;;1.05;0.63;;;;;;;26.06;33.35;94979.72;4981594;28;20539;-30
2021/12/28 02:58:22;;;;;;;1.48;0.63;;;;;;;26.07;33.21;94978.75;4980342;28;20026;-29
2021/12/28 03:00:52;;;;;;;1.35;0.60;;;;;;;26.08;33.36;94974.31;4981690;28;20021;-32
2021/12/28 03:03:25;;;;;;;1.48;0.70;;;;;;;26.06;33.31;94976.25;4981926;28;20668;-30
2021/12/28 03:05:51;;;;;;;0.90;0.60;;;;;;;26.07;33.21;94973.50;4981015;28;20069;-32
2021/12/28 03:08:18;;;;;;;1.73;1.00;;;;;;;26.07;33.23;94976.13;4963276;28;20029;-34
2021/12/28 03:10:44;;;;;;;1.80;0.70;;;;;;;26.07;33.42;94963.00;4960467;28;20049;-29
2021/12/28 03:13:13;;;;;;;1.48;0.60;;;;;;;26.06;33.35;94961.34;4983234;28;20030;-32
2021/12/28 03:15:38;;;;;;;2.28;0.90;;;;;;;26.06;33.31;94956.09;4981932;28;20026;-31
2021/12/28 03:18:04;;;;;;;1.85;0.77;;;;;;;26.07;33.21;94946.41;4979679;28;21062;-30
2021/12/28 03:20:29;;;;;;;2.45;0.80;;;;;;;26.07;33.25;94949.03;4985757;28;20026;-31
2021/12/28 03:22:54;;;;;;;1.63;0.77;;;;;;;26.06;33.47;94950.00;4986134;28;20448;-32
2021/12/28 03:25:20;;;;;;;1.52;0.70;;;;;;;26.05;33.27;94945.72;4983945;28;20048;-31
2021/12/28 03:27:46;;;;;;;2.67;0.60;;;;;;;26.06;33.30;94944.75;4952430;28;20042;-27
2021/12/28 03:30:13;;;;;;;0.77;0.60;;;;;;;26.04;33.28;94937.00;4967527;28;20038;-32
2021/12/28 03:32:38;;;;;;;0.80;0.63;;;;;;;26.05;33.30;94937.84;4968370;28;20104;-27
2021/12/28 03:35:04;;;;;;;1.65;0.52;;;;;;;26.04;33.37;94926.50;4952535;28;20057;-34
2021/12/28 03:37:33;;;;;;;1.02;0.70;;;;;;;26.03;33.28;94924.84;4983858;28;20029;-29
2021/12/28 03:39:58;;;;;;;1.98;0.40;;;;;;;26.03;33.32;94919.59;4981857;28;20093;-30
2021/12/28 03:42:24;;;;;;;1.83;0.57;;;;;;;26.04;33.28;94926.50;4966233;28;20034;-34
2021/12/28 03:44:49;;;;;;;1.17;0.65;;;;;;;26.04;33.30;94929.13;4984305;28;20041;-32
2021/12/28 03:47:14;;;;;;;1.15;0.45;;;;;;;26.02;33.21;94911.84;4984559;28;20030;-30
2021/12/28 03:49:40;;;;;;;1.38;0.50;;;;;;;26.04;33.31;94921.25;4982673;28;20034;-32
2021/12/28 03:52:06;;;;;;;2.58;0.60;;;;;;;26.04;33.35;94917.78;4980920;28;20432;-29
2021/12/28 03:54:33;;;;;;;1.10;0.75;;;;;;;26.04;33.22;94915.16;4983890;28;20097;-36
2021/12/28 03:56:58;;;;;;;0.80;0.50;;;;;;;26.03;33.26;94919.59;4952549;28;20034;-29
2021/12/28 03:59:23;;;;;;;1.08;0.52;;;;;;;26.02;33.32;94910.06;4981014;28;20065;-31
2021/12/28 04:01:49;;;;;;;1.27;0.70;;;;;;;26.03;33.25;94914.34;4985388;28;20033;-30
2021/12/28 04:04:14;;;;;;;0.90;0.70;;;;;;;26.03;33.20;94914.34;4984526;28;20538;-31
2021/12/28 04:06:40;;;;;;;1.65;0.60;;;;;;;26.02;33.27;94906.59;4966410;28;20092;-32
2021/12/28 04:09:07;;;;;;;1.02;0.68;;;;;;;26.02;33.24;94907.44;4984932;28;20034;-29
2021/12/28 04:11:32;;;;;;;1.13;0.57;;;;;;;26.02;33.22;94906.59;4983796;28;20036;-32
2021/12/28 04:14:03;;;;;;;1.52;0.80;;;;;;;26.01;33.17;94905.75;4983881;28;20078;-33
2021/12/28 04:16:29;;;;;;;1.10;0.40;;;;;;;25.97;33.27;94893.84;4986577;28;20208;-30
2021/12/28 04:18:54;;;;;;;3.60;0.75;;;;;;;25.99;33.25;94896.34;4985255;28;20042;-30
2021/12/28 04:21:19;;;;;;;1.20;0.60;;;;;;;26.00;33.18;94903.28;4984557;28;20040;-34
2021/12/28 04:23:45;;;;;;;2.17;0.77;;;;;;;26.00;33.28;94898.84;4982392;28;20689;-30
2021/12/28 04:26:10;;;;;;;1.65;0.73;;;;;;;26.01;33.21;94899.69;4979560;28;20092;-29
2021/12/28 04:28:36;;;;;;;0.52;0.45;;;;;;;26.00;33.36;94898.84;4971083;28;20935;-29
2021/12/28 04:31:01;;;;;;;0.68;0.50;;;;;;;25.98;33.32;94890.28;4981820;28;20029;-29
2021/12/28 04:33:27;;;;;;;1.13;0.60;;;;;;;25.98;33.19;94892.91;4985624;28;20054;-32
2021/12/28 04:35:52;;;;;;;3.90;0.70;;;;;;;25.99;33.27;94886.69;4982769;28;20029;-29
2021/12/28 04:38:17;;;;;;;1.42;0.52;;;;;;;25.98;33.27;94885.03;4984386;28;20079;-28
2021/12/28 04:40:43;;;;;;;0.82;0.30;;;;;;;25.98;33.26;94882.41;4984281;28;20041;-30
2021/12/28 04:43:08;;;;;;;2.58;0.73;;;;;;;25.98;33.19;94874.53;4989921;28;20026;-31
2021/12/28 04:45:36;;;;;;;0.40;0.35;;;;;;;25.97;33.32;94878.09;4965342;28;20416;-32
2021/12/28 04:48:01;;;;;;;0.88;0.40;;;;;;;25.98;33.11;94873.69;4966282;28;20037;-29
2021/12/28 04:50:27;;;;;;;1.25;0.60;;;;;;;25.96;33.24;94871.19;4984719;28;20029;-32
2021/12/28 04:52:53;;;;;;;0.32;0.32;;;;;;;25.97;33.31;94870.22;4983338;28;20030;-30
2021/12/28 04:55:18;;;;;;;0.88;0.50;;;;;;;25.98;33.22;94873.69;4968261;28;20332;-30
2021/12/28 04:57:44;;;;;;;1.08;0.52;;;;;;;25.97;33.34;94878.09;4984690;28;20133;-33
2021/12/28 05:00:13;;;;;;;1.50;0.70;;;;;;;25.96;33.27;94871.19;4954152;28;20025;-30
2021/12/28 05:02:39;;;;;;;1.70;0.60;;;;;;;25.95;33.16;94878.25;4982295;28;20542;-29
2021/12/28 05:05:04;;;;;;;0.65;0.40;;;;;;;25.96;33.29;94874.66;4982418;28;20037;-32
2021/12/28 05:07:30;;;;;;;0.40;0.40;;;;;;;25.96;33.22;94864.16;4984007;28;20544;-31
2021/12/28 05:09:57;;;;;;;1.67;0.60;;;;;;;25.95;33.37;94865.13;4969323;28;20026;-31
2021/12/28 05:12:24;;;;;;;2.05;0.63;;;;;;;25.95;33.26;94859.88;4983423;28;20025;-31
2021/12/28 05:14:49;;;;;;;0.82;0.50;;;;;;;25.96;33.17;94858.09;4984053;28;21362;-32
2021/12/28 05:17:15;;;;;;;1.13;0.60;;;;;;;25.95;33.22;94857.28;4983183;28;20037;-30
2021/12/28 05:19:40;;;;;;;1.30;0.60;;;;;;;25.95;33.29;94848.56;4980186;28;20094;-31
2021/12/28 05:22:08;;;;;;;0.88;0.40;;;;;;;25.95;33.36;94851.19;4934045;28;20048;-31
2021/12/28 05:24:35;;;;;;;5.57;1.30;;;;;;;25.94;33.63;94849.53;4983667;28;20030;-31
2021/12/28 05:27:00;;;;;;;2.55;1.00;;;;;;;25.92;33.66;94848.81;4982826;28;20049;-30
2021/12/28 05:29:26;;;;;;;3.25;0.70;;;;;;;25.93;33.46;94850.50;4981609;28;20038;-30
2021/12/28 05:31:51;;;;;;;2.03;0.70;;;;;;;25.86;33.45;94838.84;4964869;28;20029;-30
2021/12/28 05:34:16;;;;;;;0.80;0.40;;;;;;;25.92;33.43;94851.44;4964995;28;20041;-33
2021/12/28 05:36:42;;;;;;;0.95;0.50;;;;;;;25.91;33.40;94837.50;4984714;28;20029;-34
2021/12/28 05:39:07;;;;;;;1.90;0.63;;;;;;;25.90;33.42;94843.69;4980099;28;20476;-32
2021/12/28 05:41:33;;;;;;;1.90;0.63;;;;;;;25.90;33.53;94835.81;4983025;28;20029;-31
2021/12/28 05:43:58;;;;;;;1.80;0.70;;;;;;;25.91;33.51;94831.41;4983049;28;20033;-30
2021/12/28 05:46:23;;;;;;;1.95;0.60;;;;;;;25.91;33.38;94834.03;4970212;28;20484;-33
2021/12/28 05:48:49;;;;;;;1.30;0.70;;;;;;;25.91;33.53;94836.66;4983181;28;20037;-33
2021/12/28 05:51:14;;;;;;;1.05;0.68;;;;;;;25.91;33.47;94837.50;4980793;28;20034;-33
2021/12/28 05:53:40;;;;;;;1.48;0.60;;;;;;;25.90;33.49;94835.00;4985352;28;20065;-29
2021/12/28 05:56:05;;;;;;;1.38;0.50;;;;;;;25.90;33.43;94840.25;4986691;28;20587;-30
2021/12/28 05:58:31;;;;;;;1.15;0.60;;;;;;;25.91;33.48;94831.41;4982548;28;20230;-29
2021/12/28 06:00:56;;;;;;;0.95;0.60;;;;;;;25.89;33.38;94836.78;4965889;28;20026;-33
2021/12/28 06:03:22;;;;;;;0.90;0.50;;;;;;;25.90;33.44;94841.06;4988494;28;20034;-32
2021/12/28 06:05:47;;;;;;;1.50;0.68;;;;;;;25.90;33.38;94827.13;4989079;28;20077;-29
2021/12/28 06:08:12;;;;;;;0.85;0.50;;;;;;;25.90;33.32;94827.13;4989879;28;20044;-33
2021/12/28 06:10:38;;;;;;;1.63;0.60;;;;;;;25.90;33.41;94825.31;4987219;28;20579;-34
2021/12/28 06:13:03;;;;;;;1.20;0.63;;;;;;;25.91;33.46;94826.16;4988250;28;20029;-31
2021/12/28 06:15:28;;;;;;;0.82;0.57;;;;;;;25.89;33.26;94817.59;4984050;28;20981;-33
2021/12/28 06:17:54;;;;;;;1.20;0.50;;;;;;;25.89;33.35;94817.59;4987909;28;20030;-32
2021/12/28 06:20:19;;;;;;;1.27;0.60;;;;;;;25.89;33.37;94818.41;4984859;28;20056;-31
2021/12/28 06:22:45;;;;;;;1.35;0.43;;;;;;;25.89;33.27;94825.47;4988533;28;20022;-31
2021/12/28 06:25:10;;;;;;;0.75;0.40;;;;;;;25.89;33.45;94830.72;4988429;28;20484;-34
2021/12/28 06:27:35;;;;;;;0.75;0.40;;;;;;;25.88;33.32;94826.41;4971718;28;20048;-32
2021/12/28 06:30:01;;;;;;;0.38;0.38;;;;;;;25.89;33.34;94828.09;4990077;28;20112;-33
2021/12/28 06:32:26;;;;;;;1.95;0.60;;;;;;;25.89;33.35;94814.97;4991605;28;20033;-31
2021/12/28 06:34:52;;;;;;;0.77;0.60;;;;;;;25.88;33.39;94816.75;4986790;28;20029;-36
2021/12/28 06:37:17;;;;;;;2.47;0.68;;;;;;;25.89;33.43;94825.47;4987024;28;20569;-34
2021/12/28 06:39:42;;;;;;;0.57;0.50;;;;;;;25.89;33.29;94828.09;4989720;28;20041;-32
2021/12/28 06:42:08;;;;;;;0.60;0.50;;;;;;;25.88;33.45;94813.28;4967159;28;20054;-30
2021/12/28 06:44:33;;;;;;;2.15;0.52;;;;;;;25.89;33.28;94833.34;4986521;28;20670;-31
2021/12/28 06:46:59;;;;;;;1.48;0.40;;;;;;;25.88;33.41;94826.41;4988585;28;20057;-33
2021/12/28 06:49:24;;;;;;;0.93;0.50;;;;;;;25.88;33.31;94831.66;4984470;28;20030;-30
2021/12/28 06:51:49;;;;;;;0.82;0.50;;;;;;;25.88;33.46;94831.66;4987678;28;20064;-31
2021/12/28 06:54:16;;;;;;;1.48;0.40;;;;;;;25.88;33.33;94827.25;4988979;28;20029;-33
2021/12/28 06:56:41;;;;;;;0.90;0.47;;;;;;;25.88;33.41;94829.88;4990070;28;20412;-29
2021/12/28 06:59:07;;;;;;;1.08;0.32;;;;;;;25.88;33.41;94836.91;4988940;28;20030;-31
2021/12/28 07:01:32;;;;;;;1.00;0.50;;;;;;;25.88;33.49;94831.66;4990563;28;20595;-33
2021/12/28 07:03:57;;;;;;;0.47;0.40;;;;;;;25.89;33.60;94833.34;4991071;28;20058;-32
2021/12/28 07:06:24;;;;;;;1.35;0.60;;;;;;;25.89;33.32;94833.34;4974674;28;20037;-32
2021/12/28 07:08:49;;;;;;;0.93;0.38;;;;;;;25.90;33.32;94829.75;4993133;28;20400;-32
2021/12/28 07:11:15;;;;;;;0.68;0.40;;;;;;;25.89;33.45;94826.28;4987998;28;20025;-31
2021/12/28 07:13:41;;;;;;;0.93;0.50;;;;;;;25.90;33.32;94816.63;4971581;28;20042;-30
2021/12/28 07:16:06;;;;;;;1.85;0.70;;;;;;;25.89;33.35;94822.84;4990856;28;20366;-32
2021/12/28 07:18:31;;;;;;;1.25;0.40;;;;;;;25.89;33.34;94820.22;4988831;28;20714;-31
2021/12/28 07:20:58;;;;;;;2.13;0.40;;;;;;;25.90;33.47;94814.00;4988758;28;20041;-32
2021/12/28 07:23:24;;;;;;;0.70;0.40;;;;;;;25.89;33.37;94812.34;4990967;28;20032;-27
2021/12/28 07:25:53;;;;;;;1.80;0.60;;;;;;;25.89;33.50;94807.91;4989161;28;20033;-33
2021/12/28 07:28:18;;;;;;;2.05;0.50;;;;;;;25.89;33.41;94807.09;4989406;28;20029;-33
2021/12/28 07:30:44;;;;;;;2.08;0.30;;;;;;;25.90;33.34;94814.00;4983443;28;20876;-30
2021/12/28 07:33:09;;;;;;;2.42;0.45;;;;;;;25.89;33.38;94809.72;4983834;28;20060;-30
2021/12/28 07:35:35;;;;;;;2.50;1.00;;;;;;;25.90;33.48;94808.75;4971458;28;20038;-33
2021/12/28 07:38:00;;;;;;;6.25;1.00;;;;;;;25.89;33.45;94817.59;4989490;28;20152;-27
2021/12/28 07:40:25;;;;;;;4.07;1.63;;;;;;;25.89;33.56;94812.34;4986842;28;20030;-31
2021/12/28 07:42:51;;;;;;;8.75;2.65;;;;;;;25.88;33.44;94822.00;4983011;28;20034;-32
2021/12/28 07:45:16;;;;;;;10.40;2.28;;;;;;;25.88;33.34;94829.03;4967770;28;20033;-30
2021/12/28 07:47:42;;;;;;;5.50;1.85;;;;;;;25.88;33.53;94834.28;4983883;28;20030;-29
2021/12/28 07:50:08;;;;;;;11.98;2.30;;;;;;;25.88;33.65;94831.66;4984103;28;20436;-31
2021/12/28 07:52:34;;;;;;;8.38;2.63;;;;;;;25.87;33.61;94836.09;4984480;28;20033;-29
2021/12/28 07:55:00;;;;;;;9.93;3.30;;;;;;;25.86;33.86;94833.59;4981201;28;20489;-29
2021/12/28 07:57:25;;;;;;;8.50;2.92;;;;;;;25.87;33.62;94836.09;4944639;28;20036;-27
2021/12/28 07:59:50;;;;;;;11.00;3.00;;;;;;;25.87;33.65;94830.84;4981161;28;20550;-31
2021/12/28 08:02:16;;;;;;;9.27;2.78;;;;;;;25.86;33.63;94834.44;4983885;28;21219;-30
2021/12/28 08:04:41;;;;;;;10.02;3.03;;;;;;;25.86;33.41;94839.69;4963005;28;20118;-28
2021/12/28 08:07:06;;;;;;;8.68;2.72;;;;;;;25.87;33.46;94841.34;4985383;28;20437;-30
2021/12/28 08:09:32;;;;;;;10.20;2.85;;;;;;;25.87;33.39;94851.00;4984731;28;20045;-35
2021/12/28 08:11:57;;;;;;;5.97;2.45;;;;;;;25.87;33.25;94845.75;4983603;28;20493;-30
2021/12/28 08:14:23;;;;;;;11.15;2.67;;;;;;;25.86;33.18;94844.09;4983460;28;20072;-33
2021/12/28 08:16:48;;;;;;;7.47;2.22;;;;;;;25.86;33.16;94849.34;4984768;28;21373;-31
2021/12/28 08:19:15;;;;;;;10.35;2.42;;;;;;;25.86;33.33;94854.59;4985115;28;20091;-31
2021/12/28 08:21:40;;;;;;;7.13;2.25;;;;;;;25.83;33.19;94835.50;4983217;28;20080;-28
2021/12/28 08:24:06;;;;;;;9.02;2.40;;;;;;;25.85;33.29;94845.88;4986260;28;20039;-33
2021/12/28 08:26:31;;;;;;;7.88;2.40;;;;;;;25.85;33.24;94845.06;4987077;28;22724;-31
2021/12/28 08:28:57;;;;;;;7.22;2.53;;;;;;;25.85;33.47;94853.72;4973641;28;20042;-30
2021/12/28 08:31:22;;;;;;;9.35;2.50;;;;;;;25.85;33.46;94858.16;4982333;28;20049;-31
2021/12/28 08:33:47;;;;;;;8.85;2.38;;;;;;;25.86;33.58;94854.59;4949525;28;20139;-30
2021/12/28 08:36:13;;;;;;;7.15;2.53;;;;;;;25.85;33.65;94861.59;4966880;28;20022;-30
2021/12/28 08:38:39;;;;;;;7.82;2.40;;;;;;;25.85;33.61;94855.53;4983170;28;20034;-32
2021/12/28 08:41:05;;;;;;;5.93;2.17;;;;;;;25.86;33.56;94859.81;4987141;28;20534;-30
2021/12/28 08:43:31;;;;;;;6.53;1.98;;;;;;;25.86;33.54;94862.44;4970456;28;20577;-30
2021/12/28 08:45:56;;;;;;;6.68;1.88;;;;;;;25.87;33.67;94858.84;4969085;28;20026;-33
2021/12/28 08:48:23;;;;;;;8.27;1.95;;;;;;;25.87;33.64;94857.06;4986096;28;20033;-33
2021/12/28 08:50:48;;;;;;;6.45;2.28;;;;;;;25.87;33.77;94856.22;4986204;28;20034;-34
2021/12/28 08:53:14;;;;;;;5.25;1.73;;;;;;;25.88;33.89;94857.88;4982211;28;20038;-29
2021/12/28 08:55:39;;;;;;;4.97;1.90;;;;;;;25.88;33.71;94858.72;4983560;28;20547;-33
2021/12/28 08:58:05;;;;;;;8.85;2.28;;;;;;;25.88;33.85;94850.88;4982098;28;20040;-34
2021/12/28 09:00:33;;;;;;;5.78;1.88;;;;;;;25.89;33.77;94860.38;4983204;28;20733;-31
2021/12/28 09:02:58;;;;;;;4.22;1.67;;;;;;;25.91;33.88;94862.88;4983575;28;20041;-29
2021/12/28 09:05:24;;;;;;;6.30;2.00;;;;;;;25.91;33.84;94868.13;4985246;28;20041;-28
2021/12/28 09:07:51;;;;;;;3.55;1.75;;;;;;;25.93;33.83;94871.47;4982550;28;20026;-36
2021/12/28 09:10:16;;;;;;;3.97;1.48;;;;;;;25.92;33.97;94881.13;4989147;28;20628;-36
2021/12/28 09:12:42;;;;;;;5.80;2.17;;;;;;;25.94;34.06;94867.88;4968231;28;20041;-35
2021/12/28 09:15:08;;;;;;;6.40;1.73;;;;;;;25.94;33.90;94878.38;4981463;28;20421;-30
2021/12/28 09:17:34;;;;;;;3.70;1.67;;;;;;;25.94;33.93;94870.50;4981259;28;20110;-33
2021/12/28 09:20:00;;;;;;;4.28;1.58;;;;;;;25.96;34.08;94879.06;4982935;28;20045;-36
2021/12/28 09:22:26;;;;;;;4.25;1.80;;;;;;;25.98;33.96;94884.19;4969157;28;20040;-32
2021/12/28 09:24:54;;;;;;;7.75;1.98;;;;;;;25.97;34.00;94880.72;4981421;28;20521;-33
2021/12/28 09:27:19;;;;;;;3.58;1.10;;;;;;;25.96;32.52;94881.69;4963202;28;20042;-30
2021/12/28 09:29:45;;;;;;;1.98;0.70;;;;;;;25.89;30.49;94888.44;4988589;28;20045;-30
2021/12/28 09:32:10;;;;;;;1.55;0.70;;;;;;;25.77;30.36;94887.66;4983955;28;20041;-31
2021/12/28 09:34:36;;;;;;;4.15;0.70;;;;;;;25.67;30.65;94877.13;4987754;28;20033;-31
2021/12/28 09:37:01;;;;;;;4.55;1.30;;;;;;;25.60;30.91;94889.91;4981806;28;20030;-31
2021/12/28 09:39:28;;;;;;;4.78;0.80;;;;;;;25.56;31.30;94886.69;4983098;28;20053;-30
2021/12/28 09:41:56;;;;;;;3.38;0.80;;;;;;;25.53;31.48;94881.69;4969537;28;20030;-31
2021/12/28 09:44:22;;;;;;;3.20;0.70;;;;;;;25.52;31.71;94890.47;4984196;28;20040;-31
2021/12/28 09:46:47;;;;;;;1.42;0.93;;;;;;;25.52;31.91;94893.09;4984486;28;20030;-32
2021/12/28 09:49:12;;;;;;;5.90;0.90;;;;;;;25.52;31.88;94897.53;4983676;28;20030;-28
2021/12/28 09:51:38;;;;;;;1.45;0.68;;;;;;;25.53;32.17;94907.91;4965419;28;20025;-32
2021/12/28 09:54:03;;;;;;;1.95;0.90;;;;;;;25.54;32.15;94904.31;4968339;28;20476;-29
2021/12/28 09:56:29;;;;;;;2.30;0.70;;;;;;;25.55;32.12;94898.09;4968477;28;20029;-31
2021/12/28 09:58:54;;;;;;;3.15;0.93;;;;;;;25.56;32.31;94901.59;4982451;28;20045;-30
2021/12/28 10:01:20;;;;;;;2.40;0.80;;;;;;;25.57;32.39;94903.25;4981926;28;20386;-28
2021/12/28 10:03:46;;;;;;;2.00;0.73;;;;;;;25.59;32.44;94911.00;4976572;28;20143;-31
2021/12/28 10:06:20;;;;;;;2.13;0.77;;;;;;;25.60;32.38;94912.66;4985379;28;20034;-36
2021/12/28 10:08:46;;;;;;;2.67;0.90;;;;;;;25.61;32.63;94914.31;4984504;28;20046;-34
2021/12/28 10:11:11;;;;;;;3.80;1.05;;;;;;;25.62;32.72;94913.38;4977647;28;20029;-29
2021/12/28 10:13:37;;;;;;;18.85;4.28;;;;;;;25.64;32.76;94914.09;4981521;28;20428;-33
2021/12/28 10:16:02;;;;;;;19.17;4.30;;;;;;;25.65;32.73;94915.75;4979576;28;20028;-31
2021/12/28 10:18:28;;;;;;;20.23;4.65;;;;;;;25.68;32.77;94915.50;4980434;28;20709;-32
2021/12/28 10:21:00;;;;;;;24.52;5.10;;;;;;;25.68;32.94;94920.75;4980034;28;20046;-33
2021/12/28 10:23:27;;;;;;;33.38;5.15;;;;;;;25.70;32.90;94918.81;4978215;28;20022;-33
2021/12/28 10:26:01;;;;;;;17.17;4.25;;;;;;;25.73;33.12;94921.19;4970286;28;20129;-31
2021/12/28 10:28:32;;;;;;;21.52;4.30;;;;;;;25.75;32.92;94927.16;4976940;28;20489;-28
2021/12/28 10:31:06;;;;;;;15.50;4.07;;;;;;;25.76;33.05;94910.44;4980354;28;20475;-32
2021/12/28 10:33:34;;;;;;;42.53;4.78;;;;;;;25.78;33.06;94911.13;4984234;28;20801;-30
2021/12/28 10:36:08;;;;;;;18.58;3.38;;;;;;;25.79;33.27;94912.81;4981817;28;20138;-32
2021/12/28 10:38:36;;;;;;;14.77;3.70;;;;;;;25.82;33.24;94902.06;4982008;28;20067;-29
2021/12/28 10:41:07;;;;;;;13.57;3.50;;;;;;;25.83;33.31;94898.47;4965537;28;20038;-28
2021/12/28 10:43:34;;;;;;;16.92;3.45;;;;;;;25.85;33.33;94900.97;4985432;28;20034;-30
2021/12/28 10:46:05;;;;;;;11.18;4.13;;;;;;;25.87;33.85;94903.47;4960687;28;20492;-26
2021/12/28 10:48:34;;;;;;;12.40;2.95;;;;;;;25.86;34.04;94901.81;4979642;28;20041;-31
2021/12/28 10:51:09;;;;;;;13.52;3.42;;;;;;;25.85;34.10;94900.16;4961169;28;20515;-29
2021/12/28 10:56:39;;;;;;;8.88;2.72;;;;;;;25.91;34.13;94902.25;4964542;28;20112;-26
2021/12/28 10:59:06;;;;;;;9.27;3.10;;;;;;;25.99;33.89;94910.31;4983417;28;20113;-28
2021/12/28 11:01:33;;;;;;;10.40;2.80;;;;;;;26.07;34.08;94894.75;4978446;28;20038;-24
2021/12/28 11:04:00;;;;;;;9.63;3.03;;;;;;;26.19;33.87;94886.78;4965202;28;20034;-34
2021/12/28 11:06:31;;;;;;;10.77;2.80;;;;;;;26.33;33.70;94883.03;4981467;28;20026;-29
2021/12/28 11:09:00;;;;;;;7.47;2.80;;;;;;;26.48;33.29;94891.38;4971083;28;20093;-32
2021/12/28 11:11:26;;;;;;;10.52;2.70;;;;;;;26.61;33.22;94892.00;4978036;28;21369;-28
2021/12/28 11:13:59;;;;;;;8.40;3.10;;;;;;;26.75;32.87;94887.34;4971665;28;20598;-33
2021/12/28 11:16:28;;;;;;;10.02;2.80;;;;;;;26.87;32.67;94875.75;4975573;28;20025;-28
2021/12/28 11:18:58;;;;;;;7.78;2.50;;;;;;;26.98;32.57;94880.09;4986316;28;20026;-32
2021/12/28 11:21:24;;;;;;;11.45;2.50;;;;;;;27.09;32.52;94879.13;4969686;28;20112;-35
2021/12/28 11:24:01;;;;;;;8.82;2.50;;;;;;;27.21;32.36;94871.09;4990990;28;20058;-28
2021/12/28 11:26:41;;;;;;;6.32;2.38;;;;;;;27.32;32.34;94873.63;4983996;28;20088;-27
2021/12/28 11:29:13;;;;;;;8.13;2.28;;;;;;;27.44;31.98;94870.84;4958325;28;20026;-31
2021/12/28 11:31:50;;;;;;;8.60;2.30;;;;;;;27.54;31.74;94871.69;4974931;28;20030;-25